^^
Mint Hill Weather Station Historical Data
 
Daily Summary for February 01, 2015 Units:  English    Metric   Both
« Previous Day
Next Day »
Daily Weekly Monthly Yearly Custom
  Current: High: Low: Average:
Temperature: 55.6 °F 56.4 °F 34.6 °F 44.4 °F
Dew Point: 40.6 °F 40.7 °F 24.1 °F 29.7 °F
Humidity: 57% 72% 36% 57%
Wind Speed: 1.6mph 9.6mph 0.0mph 1.7mph
Wind Gust: 3.5mph 11.5mph - -
WindSSW - - SW
Pressure: 30.03 in 30.25 in 30.03 in -
Precipitation: 0.00 in      
Historical Graphs
 
 
Tabular Data for February 01, 2015
Time Temperature Dew Point Pressure Wind Wind Speed Wind Gust Humidity Rainfall Rate (Hourly) solar Conditions
00:01 34.6 °F 25.1 °F 30.25 in Calm     68% 0.00 in 0.0 W/m2 CLR
00:06 34.8 °F 25.3 °F 30.25 in Calm     68% 0.00 in 0.0 W/m2 SCT
00:11 34.7 °F 24.9 °F 30.25 in Calm     67% 0.00 in 0.0 W/m2 SCT
00:16 34.8 °F 25.0 °F 30.25 in Calm     67% 0.00 in 0.0 W/m2 SCT
00:21 34.8 °F 25.0 °F 30.25 in Calm     67% 0.00 in 0.0 W/m2 SCT
00:26 34.9 °F 25.4 °F 30.25 in Calm     68% 0.00 in 0.0 W/m2 SCT
00:31 35.0 °F 25.5 °F 30.25 in Calm     68% 0.00 in 0.0 W/m2 SCT
00:36 35.0 °F 24.8 °F 30.24 in Calm     66% 0.00 in 0.0 W/m2 SCT
00:41 35.1 °F 26.3 °F 30.24 in Calm     70% 0.00 in 0.0 W/m2 SCT
00:46 35.2 °F 26.0 °F 30.25 in Calm     69% 0.00 in 0.0 W/m2 SCT
00:51 35.2 °F 26.0 °F 30.25 in Calm     69% 0.00 in 0.0 W/m2 SCT
00:56 35.3 °F 25.8 °F 30.25 in Calm     68% 0.00 in 0.0 W/m2 SCT
01:01 35.4 °F 26.2 °F 30.25 in Calm     69% 0.00 in 0.0 W/m2 SCT
01:06 35.6 °F 26.8 °F 30.24 in Calm     70% 0.00 in 0.0 W/m2 OVC
01:11 35.7 °F 26.9 °F 30.25 in Calm     70% 0.00 in 0.0 W/m2 OVC
01:16 35.8 °F 27.0 °F 30.25 in Calm     70% 0.00 in 0.0 W/m2 OVC
01:21 35.8 °F 26.6 °F 30.25 in Calm     69% 0.00 in 0.0 W/m2 OVC
01:26 35.8 °F 27.0 °F 30.25 in Calm     70% 0.00 in 0.0 W/m2 OVC
01:31 35.9 °F 27.1 °F 30.25 in Calm     70% 0.00 in 0.0 W/m2 OVC
01:36 36.0 °F 27.5 °F 30.25 in Calm     71% 0.00 in 0.0 W/m2 OVC
01:41 36.1 °F 27.6 °F 30.25 in Calm     71% 0.00 in 0.0 W/m2 OVC
01:46 36.3 °F 28.1 °F 30.25 in Calm     72% 0.00 in 0.0 W/m2 OVC
01:51 36.3 °F 27.4 °F 30.24 in Calm     70% 0.00 in 0.0 W/m2 OVC
01:56 36.3 °F 27.4 °F 30.24 in Calm     70% 0.00 in 0.0 W/m2 OVC
02:01 36.4 °F 27.5 °F 30.24 in Calm     70% 0.00 in 0.0 W/m2 OVC
02:07 36.4 °F 27.2 °F 30.24 in Calm     69% 0.00 in 0.0 W/m2 CLR
02:12 36.4 °F 27.2 °F 30.25 in Calm     69% 0.00 in 0.0 W/m2 CLR
02:17 36.5 °F 27.3 °F 30.24 in Calm     69% 0.00 in 0.0 W/m2 CLR
02:22 36.5 °F 27.3 °F 30.24 in Calm     69% 0.00 in 0.0 W/m2 CLR
02:27 36.6 °F 27.7 °F 30.24 in Calm     70% 0.00 in 0.0 W/m2 CLR
02:32 36.6 °F 27.7 °F 30.25 in Calm     70% 0.00 in 0.0 W/m2 CLR
02:37 36.7 °F 27.8 °F 30.24 in Calm     70% 0.00 in 0.0 W/m2 CLR
02:42 36.8 °F 27.9 °F 30.24 in Calm     70% 0.00 in 0.0 W/m2 CLR
02:47 36.9 °F 28.0 °F 30.24 in SW 0.8 mph 3.5 mph 70% 0.00 in 0.0 W/m2 CLR
02:52 36.9 °F 27.7 °F 30.24 in SW 1.2 mph 2.3 mph 69% 0.00 in 0.0 W/m2 CLR
02:57 36.9 °F 27.0 °F 30.24 in SW 0.2 mph 1.1 mph 67% 0.00 in 0.0 W/m2 CLR
03:02 37.1 °F 27.9 °F 30.24 in Calm   1.1 mph 69% 0.00 in 0.0 W/m2 CLR
03:07 37.1 °F 28.2 °F 30.23 in SW 0.9 mph 3.5 mph 70% 0.00 in 0.0 W/m2 CLR
03:12 37.2 °F 28.3 °F 30.24 in Calm     70% 0.00 in 0.0 W/m2 CLR
03:17 37.3 °F 28.4 °F 30.23 in Calm     70% 0.00 in 0.0 W/m2 CLR
03:22 37.4 °F 28.5 °F 30.22 in SW 0.3 mph 1.1 mph 70% 0.00 in 0.0 W/m2 CLR
03:27 37.5 °F 28.6 °F 30.23 in Calm     70% 0.00 in 0.0 W/m2 CLR
03:32 37.6 °F 28.7 °F 30.22 in Calm     70% 0.00 in 0.0 W/m2 CLR
03:37 37.6 °F 29.0 °F 30.22 in Calm     71% 0.00 in 0.0 W/m2 CLR
03:42 37.7 °F 29.1 °F 30.22 in Calm     71% 0.00 in 0.0 W/m2 CLR
03:47 37.7 °F 28.8 °F 30.22 in Calm     70% 0.00 in 0.0 W/m2 CLR
03:52 37.8 °F 29.2 °F 30.23 in SW 1.7 mph 3.5 mph 71% 0.00 in 0.0 W/m2 CLR
03:57 37.7 °F 27.7 °F 30.23 in South 1.7 mph 3.5 mph 67% 0.00 in 0.0 W/m2 CLR
04:02 37.9 °F 26.0 °F 30.23 in SSW 1.0 mph 3.5 mph 62% 0.00 in 0.0 W/m2 FEW
04:07 38.2 °F 26.3 °F 30.22 in South 0.5 mph 1.1 mph 62% 0.00 in 0.0 W/m2 FEW
04:12 38.5 °F 27.4 °F 30.24 in West 1.5 mph 3.5 mph 64% 0.00 in 0.0 W/m2 FEW
04:17 38.7 °F 25.2 °F 30.22 in South 1.1 mph 3.5 mph 58% 0.00 in 0.0 W/m2 FEW
04:22 39.1 °F 26.4 °F 30.22 in SSW 1.0 mph 3.5 mph 60% 0.00 in 0.0 W/m2 FEW
04:27 39.1 °F 25.6 °F 30.23 in West 1.9 mph 3.0 mph 58% 0.00 in 0.0 W/m2 FEW
04:32 39.2 °F 25.6 °F 30.22 in South 0.7 mph 1.1 mph 58% 0.00 in 0.0 W/m2 FEW
04:37 39.2 °F 26.5 °F 30.23 in West 2.0 mph 3.5 mph 60% 0.00 in 0.0 W/m2 FEW
04:42 39.3 °F 27.7 °F 30.22 in Calm     63% 0.00 in 0.0 W/m2 FEW
04:47 39.3 °F 27.4 °F 30.21 in SSE 0.2 mph 1.1 mph 62% 0.00 in 0.0 W/m2 FEW
04:52 39.3 °F 27.7 °F 30.22 in Calm     63% 0.00 in 0.0 W/m2 FEW
04:57 39.2 °F 26.9 °F 30.22 in Calm     61% 0.00 in 0.0 W/m2 FEW
05:02 39.2 °F 27.3 °F 30.22 in Calm     62% 0.00 in 0.0 W/m2 FEW
05:07 39.2 °F 26.5 °F 30.22 in Calm   1.1 mph 60% 0.00 in 0.0 W/m2 FEW
05:12 39.1 °F 26.8 °F 30.23 in Calm     61% 0.00 in 0.0 W/m2 FEW
05:17 39.1 °F 26.8 °F 30.22 in SSE 0.1 mph 2.3 mph 61% 0.00 in 0.0 W/m2 FEW
05:22 39.1 °F 27.2 °F 30.22 in Calm     62% 0.00 in 0.0 W/m2 FEW
05:27 39.1 °F 27.6 °F 30.22 in Calm     63% 0.00 in 0.0 W/m2 FEW
05:32 39.0 °F 27.1 °F 30.22 in SSE 0.3 mph 1.1 mph 62% 0.00 in 0.0 W/m2 FEW
05:37 38.8 °F 27.7 °F 30.22 in Calm     64% 0.00 in 0.0 W/m2 FEW
05:42 38.7 °F 27.6 °F 30.23 in Calm     64% 0.00 in 0.0 W/m2 FEW
05:47 38.8 °F 28.0 °F 30.22 in Calm     65% 0.00 in 0.0 W/m2 FEW
05:52 38.7 °F 28.3 °F 30.23 in WSW 1.7 mph 2.3 mph 66% 0.00 in 0.0 W/m2 FEW
05:57 38.7 °F 28.7 °F 30.22 in Calm     67% 0.00 in 0.0 W/m2 FEW
06:02 38.6 °F 27.8 °F 30.23 in WSW 0.4 mph 1.0 mph 65% 0.00 in 0.0 W/m2 OVC
06:07 38.6 °F 28.2 °F 30.24 in WSW 1.9 mph 2.3 mph 66% 0.00 in 0.0 W/m2 OVC
06:12 38.6 °F 27.5 °F 30.23 in NNW 1.1 mph 1.1 mph 64% 0.00 in 0.0 W/m2 OVC
06:17 38.6 °F 27.8 °F 30.24 in NNW 0.2 mph 1.1 mph 65% 0.00 in 0.0 W/m2 OVC
06:22 38.6 °F 27.5 °F 30.24 in NNW 0.1 mph 1.1 mph 64% 0.00 in 0.0 W/m2 OVC
06:27 38.7 °F 27.2 °F 30.24 in WSW 2.4 mph 6.0 mph 63% 0.00 in 0.0 W/m2 OVC
06:32 38.9 °F 27.8 °F 30.24 in SW 2.3 mph 4.0 mph 64% 0.00 in 0.0 W/m2 OVC
06:37 39.6 °F 26.8 °F 30.24 in SW 4.0 mph 6.9 mph 60% 0.00 in 0.0 W/m2 OVC
06:42 39.9 °F 26.7 °F 30.24 in SW 1.1 mph 3.5 mph 59% 0.00 in 0.0 W/m2 OVC
06:47 40.3 °F 26.7 °F 30.23 in South 1.0 mph 3.5 mph 58% 0.00 in 0.0 W/m2 OVC
06:52 40.5 °F 28.1 °F 30.24 in SW 0.8 mph 3.5 mph 61% 0.00 in 0.0 W/m2 OVC
06:57 40.7 °F 26.2 °F 30.23 in WSW 0.4 mph 3.5 mph 56% 0.00 in 0.0 W/m2 OVC
07:02 40.8 °F 27.2 °F 30.23 in SW 0.6 mph 3.0 mph 58% 0.00 in 0.0 W/m2 CLR
07:07 40.8 °F 26.3 °F 30.24 in SW 0.8 mph 2.3 mph 56% 0.00 in 0.0 W/m2 CLR
07:12 41.0 °F 27.8 °F 30.23 in Calm     59% 0.00 in 0.0 W/m2 CLR
07:18 41.0 °F 27.8 °F 30.23 in SSW 0.6 mph 2.3 mph 59% 0.00 in 0.0 W/m2 CLR
07:23 41.1 °F 27.0 °F 30.23 in West 0.2 mph   57% 0.00 in 0.0 W/m2 CLR
07:28 41.1 °F 27.9 °F 30.23 in WSW 1.4 mph 2.3 mph 59% 0.00 in 0.0 W/m2 CLR
07:33 41.0 °F 28.2 °F 30.23 in Calm     60% 0.00 in 0.0 W/m2 CLR
07:38 41.0 °F 28.6 °F 30.24 in WNW 0.9 mph 3.5 mph 61% 0.00 in 0.0 W/m2 CLR
07:43 40.9 °F 27.2 °F 30.23 in Calm   1.1 mph 58% 0.00 in 6.0 W/m2 CLR
07:48 40.9 °F 27.7 °F 30.23 in WNW 0.4 mph 1.1 mph 59% 0.00 in 8.4 W/m2 CLR
07:53 40.7 °F 27.9 °F 30.23 in Calm     60% 0.00 in 10.8 W/m2 CLR
07:58 40.6 °F 27.8 °F 30.23 in WNW 0.1 mph 1.1 mph 60% 0.00 in 14.4 W/m2 CLR
08:03 40.5 °F 28.1 °F 30.23 in SSW 0.8 mph 2.3 mph 61% 0.00 in 22.8 W/m2 CLR
08:08 40.3 °F 28.3 °F 30.24 in Calm   1.1 mph 62% 0.00 in 25.2 W/m2 CLR
08:13 40.2 °F 27.4 °F 30.24 in Calm     60% 0.00 in 22.8 W/m2 CLR
08:18 40.2 °F 27.4 °F 30.24 in SSW 0.3 mph 1.1 mph 60% 0.00 in 25.2 W/m2 CLR
08:23 40.2 °F 28.2 °F 30.23 in South 1.2 mph 3.5 mph 62% 0.00 in 30.0 W/m2 CLR
08:28 40.2 °F 27.4 °F 30.23 in SSW 0.8 mph 3.5 mph 60% 0.00 in 33.6 W/m2 CLR
08:33 40.3 °F 27.1 °F 30.23 in SSW 0.4 mph 2.3 mph 59% 0.00 in 36.0 W/m2 CLR
08:38 40.4 °F 28.4 °F 30.23 in SSW 0.3 mph 1.1 mph 62% 0.00 in 38.4 W/m2 CLR
08:43 40.4 °F 29.6 °F 30.22 in SSE 0.1 mph 1.1 mph 65% 0.00 in 56.4 W/m2 CLR
08:48 40.3 °F 28.3 °F 30.23 in SSE 0.1 mph 1.1 mph 62% 0.00 in 69.6 W/m2 CLR
08:53 40.4 °F 27.6 °F 30.24 in SSE 1.0 mph 2.3 mph 60% 0.00 in 69.6 W/m2 CLR
08:58 40.5 °F 27.3 °F 30.24 in Calm   2.3 mph 59% 0.00 in 97.2 W/m2 CLR
09:03 40.6 °F 27.0 °F 30.24 in Calm     58% 0.00 in 99.6 W/m2 CLR
09:08 41.0 °F 27.8 °F 30.25 in SSW 0.1 mph 1.1 mph 59% 0.00 in 84.0 W/m2 CLR
09:13 41.4 °F 28.9 °F 30.24 in Calm     61% 0.00 in 124.8 W/m2 CLR
09:18 41.7 °F 28.0 °F 30.24 in SSE 0.7 mph 1.1 mph 58% 0.00 in 164.4 W/m2 CLR
09:23 42.3 °F 27.3 °F 30.24 in SSW 0.9 mph 3.5 mph 55% 0.00 in 145.2 W/m2 CLR
09:28 42.7 °F 26.3 °F 30.23 in SW 1.2 mph 3.5 mph 52% 0.00 in 202.8 W/m2 CLR
09:33 43.0 °F 26.6 °F 30.23 in South 1.6 mph 2.3 mph 52% 0.00 in 152.4 W/m2 CLR
09:38 43.6 °F 26.6 °F 30.23 in SW 1.0 mph 3.5 mph 51% 0.00 in 369.6 W/m2 CLR
09:43 44.4 °F 26.9 °F 30.23 in SSW 3.0 mph 7.0 mph 50% 0.00 in 316.8 W/m2 CLR
09:48 45.5 °F 26.9 °F 30.23 in WSW 4.3 mph 5.8 mph 48% 0.00 in 430.8 W/m2 CLR
09:53 46.4 °F 26.7 °F 30.23 in SSE 2.9 mph 6.9 mph 46% 0.00 in 325.2 W/m2 CLR
09:58 46.9 °F 26.6 °F 30.23 in SSW 4.0 mph 6.9 mph 45% 0.00 in 356.4 W/m2 CLR
10:03 47.4 °F 26.0 °F 30.23 in West 6.2 mph 9.2 mph 43% 0.00 in 295.2 W/m2 CLR
10:08 47.6 °F 25.6 °F 30.23 in SW 1.0 mph 3.5 mph 42% 0.00 in 194.4 W/m2 CLR
10:13 47.6 °F 26.2 °F 30.23 in South 3.2 mph 5.8 mph 43% 0.00 in 222.0 W/m2 CLR
10:18 47.8 °F 26.4 °F 30.23 in WSW 3.6 mph 4.6 mph 43% 0.00 in 498.0 W/m2 CLR
10:23 48.3 °F 25.7 °F 30.23 in WSW 3.1 mph 8.1 mph 41% 0.00 in 481.2 W/m2 CLR
10:28 48.8 °F 25.5 °F 30.23 in SW 5.1 mph 8.1 mph 40% 0.00 in 468.0 W/m2 CLR
10:33 49.0 °F 25.1 °F 30.22 in WNW 3.3 mph 8.1 mph 39% 0.00 in 398.4 W/m2 CLR
10:38 49.5 °F 26.1 °F 30.22 in West 2.5 mph 4.0 mph 40% 0.00 in 588.0 W/m2 CLR
10:43 50.0 °F 24.1 °F 30.22 in SW 4.9 mph 9.2 mph 36% 0.00 in 579.6 W/m2 CLR
10:48 50.6 °F 25.3 °F 30.22 in WSW 3.8 mph 6.9 mph 37% 0.00 in 400.8 W/m2 CLR
10:53 50.8 °F 25.4 °F 30.21 in WNW 6.1 mph 9.2 mph 37% 0.00 in 457.2 W/m2 CLR
10:58 50.9 °F 24.9 °F 30.21 in SSW 4.8 mph 8.1 mph 36% 0.00 in 409.2 W/m2 CLR
11:03 51.0 °F 25.0 °F 30.20 in SW 2.2 mph 4.6 mph 36% 0.00 in 414.0 W/m2 CLR
11:08 51.4 °F 27.2 °F 30.20 in SW 3.0 mph 10.0 mph 39% 0.00 in 814.8 W/m2 CLR
11:13 51.6 °F 25.5 °F 30.20 in South 9.6 mph 9.6 mph 36% 0.00 in 295.2 W/m2 CLR
11:18 51.5 °F 26.1 °F 30.20 in South 8.1 mph 11.5 mph 37% 0.00 in 554.4 W/m2 CLR
11:23 52.0 °F 27.1 °F 30.19 in SW 1.3 mph 5.0 mph 38% 0.00 in 576.0 W/m2 CLR
11:28 52.7 °F 27.1 °F 30.19 in SW 4.7 mph 8.1 mph 37% 0.00 in 489.6 W/m2 CLR
11:33 52.6 °F 26.4 °F 30.19 in SSE 3.8 mph 10.4 mph 36% 0.00 in 206.4 W/m2 CLR
11:38 52.5 °F 27.6 °F 30.19 in SSW 3.1 mph 3.5 mph 38% 0.00 in 195.6 W/m2 CLR
11:43 52.0 °F 26.5 °F 30.18 in SSW 3.9 mph 8.1 mph 37% 0.00 in 230.4 W/m2 CLR
11:48 51.9 °F 27.1 °F 30.18 in SW 2.3 mph 6.0 mph 38% 0.00 in 356.4 W/m2 CLR
11:53 52.2 °F 27.3 °F 30.17 in SSW 0.6 mph 3.5 mph 38% 0.00 in 308.4 W/m2 CLR
11:58 52.6 °F 28.3 °F 30.17 in SW 3.1 mph 3.5 mph 39% 0.00 in 261.6 W/m2 CLR
12:03 52.6 °F 27.7 °F 30.17 in SSW 2.3 mph 5.0 mph 38% 0.00 in 417.6 W/m2 CLR
12:08 53.1 °F 28.1 °F 30.17 in WSW 1.7 mph 6.9 mph 38% 0.00 in 394.8 W/m2 CLR
12:13 53.5 °F 28.5 °F 30.16 in SW 6.0 mph 6.0 mph 38% 0.00 in 328.8 W/m2 CLR
12:18 53.5 °F 28.5 °F 30.16 in SW 6.8 mph 11.0 mph 38% 0.00 in 274.8 W/m2 CLR
12:23 53.4 °F 29.7 °F 30.15 in WNW 1.9 mph 5.8 mph 40% 0.00 in 331.2 W/m2 CLR
12:28 53.7 °F 29.9 °F 30.15 in SSE 2.3 mph 3.5 mph 40% 0.00 in 676.8 W/m2 CLR
12:33 54.5 °F 30.6 °F 30.15 in West 3.8 mph 5.8 mph 40% 0.00 in 550.8 W/m2 CLR
12:38 55.0 °F 31.7 °F 30.14 in SW 2.4 mph 6.9 mph 41% 0.00 in 637.2 W/m2 CLR
12:44 55.3 °F 32.6 °F 30.14 in SW 5.4 mph 6.0 mph 42% 0.00 in 333.6 W/m2 CLR
12:48 54.9 °F 33.4 °F 30.13 in South 3.2 mph 3.5 mph 44% 0.00 in 403.2 W/m2 CLR
12:50 54.9 °F 33.4 °F 30.14 in SW 4.0 mph 8.1 mph 44% 0.00 in 403.2 W/m2 CLR
12:55 55.1 °F 34.7 °F 30.13 in West 4.8 mph 11.5 mph 46% 0.00 in 411.6 W/m2 CLR
13:00 55.3 °F 35.4 °F 30.13 in South 4.3 mph 5.8 mph 47% 0.00 in 426.0 W/m2 CLR
13:05 55.5 °F 36.1 °F 30.12 in SW 2.7 mph 4.6 mph 48% 0.00 in 586.8 W/m2 CLR
13:10 55.9 °F 36.5 °F 30.11 in SSW 4.6 mph 11.5 mph 48% 0.00 in 396.0 W/m2 CLR
13:15 56.2 °F 36.8 °F 30.11 in SW 3.5 mph 5.8 mph 48% 0.00 in 291.6 W/m2 CLR
13:20 55.9 °F 37.5 °F 30.11 in SSW 2.3 mph 4.0 mph 50% 0.00 in 373.2 W/m2 CLR
13:25 55.7 °F 38.3 °F 30.11 in WSW 5.0 mph 9.2 mph 52% 0.00 in 489.6 W/m2 CLR
13:30 56.0 °F 39.1 °F 30.11 in SSW 3.2 mph 9.2 mph 53% 0.00 in 573.6 W/m2 CLR
13:35 56.3 °F 39.4 °F 30.11 in SSW 6.4 mph 9.2 mph 53% 0.00 in 337.2 W/m2 CLR
13:40 56.4 °F 40.0 °F 30.10 in SSW 5.7 mph 6.9 mph 54% 0.00 in 274.8 W/m2 CLR
13:45 56.0 °F 39.6 °F 30.11 in SW 6.3 mph 11.5 mph 54% 0.00 in 211.2 W/m2 CLR
13:50 55.9 °F 40.0 °F 30.11 in WSW 6.3 mph 10.4 mph 55% 0.00 in 192.0 W/m2 CLR
13:55 55.7 °F 39.8 °F 30.10 in West 3.4 mph 9.2 mph 55% 0.00 in 183.6 W/m2 CLR
14:00 55.2 °F 39.8 °F 30.11 in SW 8.9 mph 11.5 mph 56% 0.00 in 153.6 W/m2 CLR
14:05 55.0 °F 39.6 °F 30.10 in SSW 4.8 mph 8.1 mph 56% 0.00 in 166.8 W/m2 CLR
14:10 55.0 °F 39.6 °F 30.11 in South 2.6 mph 3.5 mph 56% 0.00 in 153.6 W/m2 CLR
14:15 55.2 °F 39.8 °F 30.10 in SW 4.4 mph 8.1 mph 56% 0.00 in 278.4 W/m2 CLR
14:20 55.3 °F 39.9 °F 30.10 in SW 4.6 mph 5.8 mph 56% 0.00 in 223.2 W/m2 CLR
14:25 55.4 °F 39.5 °F 30.10 in SSW 3.3 mph 8.1 mph 55% 0.00 in 236.4 W/m2 CLR
14:30 55.5 °F 39.6 °F 30.10 in SW 4.3 mph 8.1 mph 55% 0.00 in 205.2 W/m2 CLR
14:35 55.4 °F 39.5 °F 30.10 in WNW 3.0 mph 5.8 mph 55% 0.00 in 144.0 W/m2 CLR
14:40 55.2 °F 39.8 °F 30.10 in SW 2.6 mph 5.8 mph 56% 0.00 in 108.0 W/m2 CLR
14:45 55.0 °F 39.6 °F 30.09 in SW 3.4 mph 6.0 mph 56% 0.00 in 84.0 W/m2 CLR
14:50 55.0 °F 39.6 °F 30.09 in SSW 1.0 mph 3.5 mph 56% 0.00 in 177.6 W/m2 CLR
14:55 55.1 °F 39.7 °F 30.08 in SE 1.7 mph 3.5 mph 56% 0.00 in 256.8 W/m2 CLR
15:00 55.3 °F 39.9 °F 30.08 in South 2.1 mph 3.5 mph 56% 0.00 in 153.6 W/m2 CLR
15:05 55.5 °F 39.6 °F 30.07 in SSW 3.4 mph 4.6 mph 55% 0.00 in 147.6 W/m2 FEW
15:10 55.5 °F 40.0 °F 30.07 in SSE 2.9 mph 6.9 mph 56% 0.00 in 126.0 W/m2 FEW
15:15 55.5 °F 40.0 °F 30.07 in WNW 2.1 mph 3.5 mph 56% 0.00 in 141.6 W/m2 FEW
15:20 55.5 °F 40.0 °F 30.06 in SSW 2.0 mph 3.5 mph 56% 0.00 in 150.0 W/m2 FEW
15:25 55.5 °F 40.0 °F 30.06 in SSW 3.9 mph 8.1 mph 56% 0.00 in 116.4 W/m2 FEW
15:30 55.5 °F 40.5 °F 30.05 in South 2.5 mph 3.5 mph 57% 0.00 in 126.0 W/m2 FEW
15:35 55.7 °F 40.7 °F 30.05 in SSE 1.1 mph 2.3 mph 57% 0.00 in 117.6 W/m2 FEW
15:40 55.7 °F 40.2 °F 30.05 in South 1.8 mph 3.5 mph 56% 0.00 in 116.4 W/m2 FEW
15:45 55.6 °F 40.6 °F 30.04 in SW 1.6 mph 2.3 mph 57% 0.00 in 105.6 W/m2 FEW
15:50 55.6 °F 40.6 °F 30.04 in East 1.6 mph 3.5 mph 57% 0.00 in 99.6 W/m2 FEW
15:55 55.5 °F 40.5 °F 30.03 in SSW 2.4 mph 3.5 mph 57% 0.00 in 92.4 W/m2 FEW
16:00 55.6 °F 40.6 °F 30.03 in SSE 2.4 mph 4.6 mph 57% 0.00 in 88.8 W/m2 FEW
16:05 55.6 °F 40.6 °F 30.03 in SSW 1.6 mph 3.5 mph 57% 0.00 in 105.6 W/m2 CLR
Mint Hill, North Carolina, USA
Compliments of Weather Underground